Time;durP1;ratioP1;P1;durP2;ratioP2;P2;SDS_P1;SDS_P2;PMS_P1;PMS_P2;Temp;Humidity;BMP_temperature;BMP_pressure;BME280_temperature;BME280_humidity;BME280_pressure;Samples;Min_cycle;Max_cycle;Signal;HPM_P1;HPM_P2
2023/01/13 00:00:47;;;;;;;1.90;0.97;;;15.10;60.40;;;;;;5074277;28;20447;-70
2023/01/13 00:03:14;;;;;;;2.00;1.30;;;15.20;60.50;;;;;;5073042;28;20944;-70
2023/01/13 00:05:41;;;;;;;2.23;0.97;;;15.10;60.30;;;;;;5085306;28;20492;-71
2023/01/13 00:08:08;;;;;;;1.73;1.07;;;15.10;60.90;;;;;;5073590;28;20999;-71
2023/01/13 00:10:36;;;;;;;2.33;1.10;;;15.10;61.40;;;;;;5090008;28;20827;-71
2023/01/13 00:13:04;;;;;;;1.70;1.00;;;15.10;61.80;;;;;;5073349;28;20512;-71
2023/01/13 00:15:32;;;;;;;1.83;1.23;;;14.90;62.20;;;;;;5072706;28;20963;-71
2023/01/13 00:18:01;;;;;;;4.40;1.40;;;14.80;62.70;;;;;;5093091;28;20515;-70
2023/01/13 00:20:28;;;;;;;1.00;0.90;;;14.80;62.90;;;;;;5075040;28;20447;-70
2023/01/13 00:22:55;;;;;;;1.27;1.10;;;14.70;63.40;;;;;;5093311;28;20453;-70
2023/01/13 00:25:23;;;;;;;1.10;1.00;;;14.80;63.50;;;;;;5082484;28;20458;-70
2023/01/13 00:27:49;;;;;;;2.47;0.90;;;15.00;63.10;;;;;;5077662;28;20451;-70
2023/01/13 00:30:17;;;;;;;0.90;0.80;;;15.10;62.60;;;;;;5092710;28;20450;-70
2023/01/13 00:32:44;;;;;;;1.10;1.00;;;15.10;62.10;;;;;;5089257;28;20562;-70
2023/01/13 00:35:15;;;;;;;2.87;1.17;;;15.20;61.80;;;;;;5072896;28;20455;-70
2023/01/13 00:37:42;;;;;;;2.80;1.00;;;15.30;61.60;;;;;;5075300;28;20474;-70
2023/01/13 00:40:10;;;;;;;1.20;0.77;;;15.20;61.20;;;;;;5072836;28;20943;-70
2023/01/13 00:45:22;;;;;;;3.37;0.97;;;15.20;61.30;;;;;;5077754;28;20442;-70
2023/01/13 00:47:49;;;;;;;2.00;1.50;;;15.20;61.30;;;;;;5091395;28;20454;-70
2023/01/13 00:50:18;;;;;;;1.40;1.03;;;15.10;61.30;;;;;;5092719;28;20446;-70
2023/01/13 00:52:45;;;;;;;1.67;0.90;;;15.00;62.40;;;;;;5092697;28;20573;-70
2023/01/13 00:55:12;;;;;;;1.33;0.67;;;14.90;63.60;;;;;;5093010;28;20527;-70
2023/01/13 00:57:39;;;;;;;2.07;0.90;;;15.00;64.30;;;;;;5089652;28;20453;-70
2023/01/13 01:00:08;;;;;;;3.40;1.00;;;14.80;65.10;;;;;;5078407;28;20999;-70
2023/01/13 01:02:35;;;;;;;1.77;0.87;;;14.80;65.60;;;;;;5072010;28;20810;-70
2023/01/13 01:05:02;;;;;;;1.50;0.70;;;14.80;65.60;;;;;;5072054;28;20451;-70
2023/01/13 01:07:30;;;;;;;3.30;1.00;;;14.70;65.80;;;;;;5080263;28;20451;-70
2023/01/13 01:09:57;;;;;;;1.03;0.77;;;14.70;65.50;;;;;;5083339;28;21062;-70
2023/01/13 01:12:24;;;;;;;1.00;0.87;;;14.70;66.00;;;;;;5071731;28;20489;-70
2023/01/13 01:14:51;;;;;;;1.40;0.90;;;14.80;66.20;;;;;;5071878;28;20451;-70
2023/01/13 01:17:18;;;;;;;1.07;0.90;;;14.60;66.10;;;;;;5078117;28;20446;-70
2023/01/13 01:19:45;;;;;;;2.03;0.90;;;14.70;66.30;;;;;;5072764;28;20443;-70
2023/01/13 01:22:12;;;;;;;1.87;1.20;;;14.80;66.70;;;;;;5080319;28;21026;-70
2023/01/13 01:24:41;;;;;;;1.13;0.80;;;14.90;67.00;;;;;;5091787;28;20684;-70
2023/01/13 01:27:08;;;;;;;1.20;0.93;;;14.70;66.70;;;;;;5086756;28;20559;-70
2023/01/13 01:29:34;;;;;;;2.07;0.80;;;14.70;67.20;;;;;;5071440;28;20479;-70
2023/01/13 01:32:01;;;;;;;1.40;0.73;;;14.70;67.50;;;;;;5075437;28;20474;-70
2023/01/13 01:34:29;;;;;;;1.80;1.03;;;14.70;67.80;;;;;;5076849;28;20456;-70
2023/01/13 01:36:58;;;;;;;1.63;1.10;;;14.60;68.30;;;;;;5072263;28;20447;-70
2023/01/13 01:39:25;;;;;;;1.37;0.70;;;14.40;68.80;;;;;;5071391;28;20447;-70
2023/01/13 01:44:56;;;;;;;2.40;1.10;;;14.30;69.90;;;;;;5091104;28;20413;-69
2023/01/13 01:47:24;;;;;;;2.93;1.10;;;14.30;70.40;;;;;;5078147;28;20802;-69
2023/01/13 01:49:51;;;;;;;1.53;0.73;;;14.20;70.40;;;;;;5091881;28;20518;-70
2023/01/13 01:52:22;;;;;;;1.70;1.10;;;14.30;70.40;;;;;;5086245;28;20498;-70
2023/01/13 01:54:54;;;;;;;1.63;0.80;;;14.40;70.70;;;;;;5071848;28;20436;-70
2023/01/13 01:57:32;;;;;;;1.30;0.90;;;14.40;70.20;;;;;;5083362;28;20473;-70
2023/01/13 02:00:00;;;;;;;3.27;0.93;;;14.40;69.90;;;;;;5092854;28;20438;-70
2023/01/13 02:02:30;;;;;;;4.07;1.40;;;14.50;70.00;;;;;;5086342;28;20876;-70
2023/01/13 02:04:59;;;;;;;2.17;1.00;;;14.40;69.70;;;;;;5091581;28;20788;-70
2023/01/13 02:07:28;;;;;;;0.97;0.87;;;14.40;69.60;;;;;;5090046;28;20450;-70
2023/01/13 02:09:57;;;;;;;2.10;1.00;;;14.40;69.30;;;;;;5091973;28;20485;-70
2023/01/13 02:12:31;;;;;;;1.63;0.80;;;14.40;69.60;;;;;;5084849;28;20470;-70
2023/01/13 02:15:11;;;;;;;1.13;0.80;;;14.50;69.50;;;;;;5071539;28;20467;-69
2023/01/13 02:17:56;;;;;;;2.80;0.90;;;14.40;69.50;;;;;;5078810;28;20445;-70
2023/01/13 02:20:44;;;;;;;0.93;0.90;;;14.30;69.80;;;;;;5074921;28;20538;-70
2023/01/13 02:27:03;;;;;;;2.30;1.20;;;14.40;69.90;;;;;;5071747;28;20407;-70
2023/01/13 02:32:42;;;;;;;1.10;0.90;;;14.30;70.10;;;;;;5075509;28;20520;-70
2023/01/13 02:35:18;;;;;;;1.47;0.97;;;14.30;70.80;;;;;;5076330;28;20431;-70
2023/01/13 02:37:46;;;;;;;1.43;1.13;;;14.20;71.10;;;;;;5035474;28;20449;-70
2023/01/13 02:40:18;;;;;;;1.77;0.90;;;14.20;71.30;;;;;;5078837;28;20451;-70
2023/01/13 02:45:45;;;;;;;2.20;0.70;;;14.30;71.00;;;;;;5089908;28;20434;-70
2023/01/13 02:48:15;;;;;;;2.80;1.00;;;14.40;70.80;;;;;;5075510;28;20438;-70
2023/01/13 02:50:47;;;;;;;1.50;1.13;;;14.30;70.20;;;;;;5077970;28;20466;-70
2023/01/13 02:53:19;;;;;;;2.00;0.90;;;14.30;70.10;;;;;;5083067;28;20566;-70
2023/01/13 02:55:52;;;;;;;2.70;1.10;;;14.40;70.20;;;;;;5073867;28;20915;-70
2023/01/13 02:58:24;;;;;;;1.93;0.90;;;14.40;69.60;;;;;;5106586;28;20448;-70
2023/01/13 03:00:52;;;;;;;1.13;0.80;;;14.40;69.20;;;;;;5115127;28;20441;-70
2023/01/13 03:03:19;;;;;;;1.90;1.00;;;14.40;68.90;;;;;;5094441;28;20890;-70
2023/01/13 03:05:49;;;;;;;2.03;0.73;;;14.40;68.20;;;;;;5074105;28;21000;-70
2023/01/13 03:08:29;;;;;;;1.27;1.10;;;14.50;68.00;;;;;;5074281;28;21022;-69
2023/01/13 03:11:06;;;;;;;1.70;0.90;;;14.40;67.80;;;;;;5079937;28;20442;-69
2023/01/13 03:14:07;;;;;;;2.17;1.00;;;14.50;68.00;;;;;;5080181;28;20447;-70
2023/01/13 03:16:52;;;;;;;1.30;0.77;;;14.50;67.50;;;;;;5049543;28;20447;-70
2023/01/13 03:19:28;;;;;;;1.73;1.20;;;14.60;67.40;;;;;;5074265;28;20976;-70
2023/01/13 03:22:01;;;;;;;1.63;1.23;;;14.50;66.70;;;;;;5074738;28;20481;-70
2023/01/13 03:24:34;;;;;;;2.00;1.17;;;14.50;66.70;;;;;;5093639;28;20861;-70
2023/01/13 03:27:07;;;;;;;2.70;1.10;;;14.60;66.80;;;;;;5087177;28;20479;-69
2023/01/13 03:29:38;;;;;;;2.87;1.33;;;14.60;67.20;;;;;;5073231;28;20471;-70
2023/01/13 03:32:13;;;;;;;1.77;0.93;;;14.80;66.20;;;;;;5075007;28;20475;-70
2023/01/13 03:34:45;;;;;;;2.40;1.20;;;14.80;65.60;;;;;;5093536;28;20437;-70
2023/01/13 03:37:15;;;;;;;1.83;1.00;;;14.90;65.50;;;;;;5094380;28;20435;-70
2023/01/13 03:39:47;;;;;;;2.83;1.10;;;14.80;65.60;;;;;;5081366;28;20447;-70
2023/01/13 03:42:20;;;;;;;1.43;0.80;;;14.80;65.60;;;;;;5076238;28;20508;-70
2023/01/13 03:44:53;;;;;;;1.87;0.90;;;14.80;65.20;;;;;;5081197;28;20623;-71
2023/01/13 03:47:27;;;;;;;1.80;0.90;;;14.90;65.60;;;;;;5074155;28;20435;-70
2023/01/13 03:50:00;;;;;;;0.90;0.80;;;14.90;65.40;;;;;;5073972;28;20471;-70
2023/01/13 03:52:31;;;;;;;0.43;0.43;;;14.90;65.30;;;;;;5089231;28;20835;-69
2023/01/13 03:55:04;;;;;;;1.57;0.87;;;14.90;65.40;;;;;;5073466;28;20455;-70
2023/01/13 03:57:36;;;;;;;1.53;0.90;;;14.90;65.40;;;;;;5087716;28;20441;-70
2023/01/13 04:00:08;;;;;;;1.57;0.80;;;14.90;65.30;;;;;;5114505;28;20541;-70
2023/01/13 04:02:47;;;;;;;1.80;0.90;;;14.90;65.10;;;;;;5103618;28;20443;-70
2023/01/13 04:05:14;;;;;;;1.53;1.00;;;14.90;65.00;;;;;;5074703;28;20436;-70
2023/01/13 04:07:53;;;;;;;1.23;0.60;;;14.90;64.90;;;;;;5093313;28;20508;-70
2023/01/13 04:10:27;;;;;;;1.60;0.73;;;14.90;64.70;;;;;;5088792;28;20467;-70
2023/01/13 04:13:00;;;;;;;1.00;0.67;;;15.00;64.80;;;;;;5080389;28;20462;-69
2023/01/13 04:15:29;;;;;;;2.97;0.80;;;15.00;64.90;;;;;;5083445;28;20486;-70
2023/01/13 04:18:12;;;;;;;2.53;0.93;;;14.90;64.90;;;;;;5073367;28;20546;-70
2023/01/13 04:20:41;;;;;;;1.90;0.80;;;14.70;65.50;;;;;;5073067;28;20879;-70
2023/01/13 04:23:09;;;;;;;1.30;0.87;;;14.80;65.50;;;;;;5073882;28;20963;-70
2023/01/13 04:25:37;;;;;;;1.00;0.90;;;14.80;65.60;;;;;;5072496;28;20458;-70
2023/01/13 04:28:04;;;;;;;2.63;1.20;;;14.80;65.10;;;;;;5085797;28;20450;-70
2023/01/13 04:30:32;;;;;;;0.70;0.70;;;14.90;65.20;;;;;;5092260;28;20561;-70
2023/01/13 04:32:59;;;;;;;0.97;0.90;;;14.90;65.20;;;;;;5083314;28;20524;-70
2023/01/13 04:35:27;;;;;;;1.57;0.80;;;14.80;65.00;;;;;;5073158;28;20860;-70
2023/01/13 04:37:54;;;;;;;1.10;0.77;;;14.90;65.10;;;;;;5072162;28;20548;-70
2023/01/13 04:40:21;;;;;;;0.63;0.60;;;14.90;65.00;;;;;;5086196;28;20446;-70
2023/01/13 04:42:49;;;;;;;0.67;0.60;;;14.90;65.00;;;;;;5084087;28;20487;-70
2023/01/13 04:45:16;;;;;;;0.60;0.60;;;14.90;64.90;;;;;;5084124;28;20478;-70
2023/01/13 04:47:43;;;;;;;1.90;0.93;;;14.90;65.60;;;;;;5092666;28;20446;-70
2023/01/13 04:50:11;;;;;;;0.63;0.63;;;14.90;65.00;;;;;;5080836;28;20568;-70
2023/01/13 04:52:39;;;;;;;1.13;0.90;;;14.90;65.00;;;;;;5071768;28;20507;-70
2023/01/13 04:55:08;;;;;;;0.87;0.60;;;14.90;64.90;;;;;;5073473;28;20490;-70
2023/01/13 04:57:36;;;;;;;0.57;0.47;;;14.90;65.10;;;;;;5092230;28;20942;-71
2023/01/13 05:00:05;;;;;;;0.67;0.60;;;14.90;64.90;;;;;;5112944;28;20445;-70
2023/01/13 05:02:32;;;;;;;0.73;0.67;;;15.00;65.00;;;;;;5097508;28;20454;-70
2023/01/13 05:04:59;;;;;;;1.37;0.80;;;15.00;64.80;;;;;;5092455;28;20504;-71
2023/01/13 05:07:26;;;;;;;1.20;0.60;;;15.00;64.70;;;;;;5092218;28;20451;-71
2023/01/13 05:09:55;;;;;;;0.50;0.50;;;15.00;64.90;;;;;;5082221;28;20510;-71
2023/01/13 05:17:52;;;;;;;0.57;0.57;;;15.00;65.20;;;;;;5071739;28;20764;-70
2023/01/13 05:20:19;;;;;;;0.87;0.80;;;15.00;65.00;;;;;;5072723;28;20958;-70
2023/01/13 05:25:33;;;;;;;0.70;0.63;;;15.00;65.00;;;;;;5077861;28;20504;-70
2023/01/13 05:28:01;;;;;;;0.50;0.50;;;15.00;64.90;;;;;;5092502;28;20462;-71
2023/01/13 05:30:31;;;;;;;0.60;0.60;;;15.00;64.90;;;;;;5092196;28;20597;-70
2023/01/13 05:32:58;;;;;;;0.43;0.43;;;15.00;65.20;;;;;;5086307;28;20827;-70
2023/01/13 05:35:29;;;;;;;1.70;0.73;;;15.00;65.30;;;;;;5089412;28;20465;-70
2023/01/13 05:37:57;;;;;;;0.97;0.60;;;14.90;65.50;;;;;;5083715;28;20443;-69
2023/01/13 05:43:21;;;;;;;0.43;0.43;;;14.80;66.00;;;;;;5072769;28;20446;-70
2023/01/13 05:45:53;;;;;;;0.43;0.43;;;14.80;65.80;;;;;;5070981;28;20777;-70
2023/01/13 05:48:22;;;;;;;1.93;0.70;;;14.80;66.00;;;;;;5071502;28;20443;-70
2023/01/13 05:50:50;;;;;;;0.93;0.77;;;14.80;66.00;;;;;;5086220;28;20531;-70
2023/01/13 05:53:17;;;;;;;0.60;0.60;;;14.80;66.00;;;;;;5079351;28;20885;-70
2023/01/13 05:55:45;;;;;;;1.30;0.30;;;14.70;66.00;;;;;;5090845;28;20976;-70
2023/01/13 05:58:15;;;;;;;2.13;0.50;;;14.80;66.00;;;;;;5105058;28;20446;-70
2023/01/13 06:00:43;;;;;;;0.70;0.57;;;14.90;65.90;;;;;;5111259;28;20928;-70
2023/01/13 06:03:13;;;;;;;2.03;0.70;;;14.90;65.60;;;;;;5094052;28;20827;-70
2023/01/13 06:05:40;;;;;;;1.77;0.70;;;14.80;65.40;;;;;;5089199;28;20861;-70
2023/01/13 06:08:08;;;;;;;1.23;0.57;;;14.90;65.30;;;;;;5091483;28;20509;-71
2023/01/13 06:10:35;;;;;;;0.50;0.50;;;14.90;65.40;;;;;;5090656;28;20482;-70
2023/01/13 06:13:03;;;;;;;0.60;0.60;;;14.90;65.40;;;;;;5086212;28;20490;-70
2023/01/13 06:15:32;;;;;;;1.07;0.63;;;14.90;65.40;;;;;;5088880;28;20543;-70
2023/01/13 06:18:01;;;;;;;0.50;0.50;;;15.00;65.40;;;;;;5091072;28;20450;-70
2023/01/13 06:20:28;;;;;;;0.40;0.40;;;14.90;65.10;;;;;;5090679;28;20507;-70
2023/01/13 06:22:55;;;;;;;0.80;0.70;;;15.00;65.20;;;;;;5080637;28;20455;-70
2023/01/13 06:25:30;;;;;;;0.80;0.60;;;14.90;64.80;;;;;;5071691;28;20451;-70
2023/01/13 06:27:59;;;;;;;0.47;0.47;;;14.90;65.00;;;;;;5070712;28;20427;-70
2023/01/13 06:30:29;;;;;;;1.07;0.70;;;14.90;65.10;;;;;;5070869;28;20494;-70
2023/01/13 06:33:00;;;;;;;1.37;0.53;;;14.90;65.10;;;;;;5071184;28;20562;-70
2023/01/13 06:35:31;;;;;;;1.37;0.80;;;14.90;65.40;;;;;;5084553;28;20523;-70
2023/01/13 06:38:00;;;;;;;2.10;0.90;;;14.90;65.50;;;;;;5070261;28;20449;-70
2023/01/13 06:40:27;;;;;;;0.70;0.60;;;14.90;65.60;;;;;;5070861;28;20443;-70
2023/01/13 06:43:13;;;;;;;0.80;0.50;;;14.90;65.40;;;;;;5074684;28;20458;-70
2023/01/13 06:45:42;;;;;;;0.50;0.50;;;14.90;65.60;;;;;;5090068;28;20800;-70
2023/01/13 06:48:11;;;;;;;0.97;0.70;;;14.80;65.80;;;;;;5081546;28;20452;-71
2023/01/13 06:50:38;;;;;;;0.40;0.40;;;14.80;65.80;;;;;;5070102;28;20483;-71
2023/01/13 06:53:04;;;;;;;0.73;0.50;;;14.80;65.80;;;;;;5070671;28;20542;-71
2023/01/13 06:55:31;;;;;;;0.97;0.60;;;14.70;66.20;;;;;;5072261;28;20874;-70
2023/01/13 06:57:59;;;;;;;1.20;0.63;;;14.70;66.60;;;;;;5092376;28;20477;-71
2023/01/13 07:00:27;;;;;;;0.40;0.40;;;14.70;66.60;;;;;;5101774;28;20443;-71
2023/01/13 07:02:54;;;;;;;0.90;0.90;;;14.70;66.70;;;;;;5074573;28;20883;-72
2023/01/13 07:05:22;;;;;;;0.53;0.53;;;14.70;66.60;;;;;;5035541;28;20528;-70
2023/01/13 07:07:49;;;;;;;1.33;0.73;;;14.60;66.90;;;;;;5070323;28;20458;-70
2023/01/13 07:10:21;;;;;;;0.40;0.40;;;14.60;66.90;;;;;;5070836;28;20566;-69
2023/01/13 07:15:34;;;;;;;0.90;0.53;;;14.70;66.70;;;;;;5075369;28;20435;-69
2023/01/13 07:18:02;;;;;;;0.70;0.70;;;14.80;66.70;;;;;;5074068;28;20504;-69
2023/01/13 07:20:31;;;;;;;0.50;0.50;;;14.80;66.70;;;;;;5080663;28;20511;-70
2023/01/13 07:22:58;;;;;;;0.47;0.47;;;14.60;67.40;;;;;;5094019;28;20442;-70
2023/01/13 07:25:25;;;;;;;1.10;0.73;;;14.60;68.20;;;;;;5092023;28;20519;-69
2023/01/13 07:27:52;;;;;;;0.50;0.50;;;14.40;69.70;;;;;;5093889;28;20458;-70
2023/01/13 07:30:21;;;;;;;1.07;0.80;;;14.30;69.30;;;;;;5093811;28;20498;-69
2023/01/13 07:32:48;;;;;;;0.50;0.50;;;14.40;69.50;;;;;;5089108;28;20549;-69
2023/01/13 07:35:16;;;;;;;1.43;0.60;;;14.60;69.40;;;;;;5088853;28;20527;-70
2023/01/13 07:37:44;;;;;;;0.97;0.67;;;14.80;69.40;;;;;;5090481;28;20538;-69
2023/01/13 07:40:12;;;;;;;0.47;0.40;;;14.90;69.70;;;;;;5092478;28;20525;-70
2023/01/13 07:45:24;;;;;;;2.47;0.90;;;14.80;70.60;;;;;;5079247;28;20435;-70
2023/01/13 07:47:53;;;;;;;1.53;0.80;;;14.30;72.50;;;;;;5075472;28;20450;-70
2023/01/13 07:50:22;;;;;;;1.27;0.80;;;13.90;75.00;;;;;;5093789;28;20564;-70
2023/01/13 07:52:51;;;;;;;1.73;0.63;;;13.60;76.10;;;;;;5093077;28;20515;-70
2023/01/13 07:55:18;;;;;;;1.97;0.87;;;13.50;76.80;;;;;;5092276;28;20497;-69
2023/01/13 07:57:46;;;;;;;2.17;0.80;;;13.30;77.70;;;;;;5099084;28;20834;-69
2023/01/13 08:00:14;;;;;;;1.37;0.90;;;13.20;78.80;;;;;;5106015;28;20443;-70
2023/01/13 08:02:41;;;;;;;1.07;0.87;;;13.20;78.50;;;;;;5084365;28;20452;-68
2023/01/13 08:05:09;;;;;;;1.47;0.80;;;13.20;78.20;;;;;;5080739;28;20482;-70
2023/01/13 08:07:37;;;;;;;1.37;0.73;;;13.20;78.90;;;;;;5073637;28;20852;-70
2023/01/13 08:10:06;;;;;;;1.17;1.00;;;13.00;78.50;;;;;;5072536;28;20447;-70
2023/01/13 08:15:18;;;;;;;1.47;1.10;;;13.10;78.10;;;;;;5078902;28;20443;-70
2023/01/13 08:17:45;;;;;;;2.90;0.80;;;13.00;78.00;;;;;;5086564;28;20533;-71
2023/01/13 08:20:12;;;;;;;0.73;0.73;;;13.00;77.50;;;;;;5080887;28;20529;-71
2023/01/13 08:22:39;;;;;;;2.20;1.07;;;13.00;77.70;;;;;;5093523;28;20523;-68
2023/01/13 08:25:08;;;;;;;1.23;0.73;;;13.00;77.80;;;;;;5083076;28;20942;-70
2023/01/13 08:27:35;;;;;;;1.50;0.93;;;13.10;77.90;;;;;;5080332;28;20482;-70
2023/01/13 08:30:02;;;;;;;0.93;0.73;;;13.20;77.50;;;;;;5090798;28;20454;-70
2023/01/13 08:32:29;;;;;;;2.50;1.03;;;13.20;77.30;;;;;;5085094;28;20874;-70
2023/01/13 08:34:56;;;;;;;1.07;0.67;;;13.10;77.20;;;;;;5088552;28;20486;-69
2023/01/13 08:37:23;;;;;;;1.73;1.00;;;13.10;77.50;;;;;;5076888;28;20517;-69
2023/01/13 08:39:50;;;;;;;3.40;1.23;;;13.20;77.70;;;;;;5071451;28;21041;-69
2023/01/13 08:42:18;;;;;;;1.40;1.20;;;13.20;77.50;;;;;;5072691;28;20483;-69
2023/01/13 08:44:45;;;;;;;1.77;0.97;;;13.20;77.10;;;;;;5071974;28;20542;-69
2023/01/13 08:47:12;;;;;;;2.00;0.80;;;13.20;77.20;;;;;;5045470;28;20526;-69
2023/01/13 08:49:39;;;;;;;1.30;0.67;;;13.30;77.20;;;;;;5071923;28;20491;-69
2023/01/13 08:52:08;;;;;;;1.63;0.87;;;13.30;76.70;;;;;;5079630;28;20539;-69
2023/01/13 08:54:35;;;;;;;1.63;0.80;;;13.30;77.10;;;;;;5101145;28;20537;-70
2023/01/13 08:57:03;;;;;;;2.07;1.33;;;13.40;76.90;;;;;;5102373;28;21016;-70
2023/01/13 08:59:32;;;;;;;2.13;1.10;;;13.40;76.40;;;;;;5097362;28;20533;-69
2023/01/13 09:01:59;;;;;;;1.30;0.93;;;13.50;77.00;;;;;;5084099;28;20443;-69
2023/01/13 09:04:28;;;;;;;2.13;0.90;;;13.30;76.90;;;;;;5082955;28;20546;-70
2023/01/13 09:06:55;;;;;;;1.97;0.80;;;13.40;76.60;;;;;;5092423;28;20507;-69
2023/01/13 09:09:26;;;;;;;1.97;0.90;;;13.40;76.90;;;;;;5089054;28;20520;-70
2023/01/13 09:14:39;;;;;;;1.03;0.93;;;13.50;77.00;;;;;;5076215;28;20454;-69
2023/01/13 09:17:07;;;;;;;2.47;1.00;;;13.50;76.70;;;;;;5075384;28;20542;-69
2023/01/13 09:19:34;;;;;;;1.70;1.10;;;13.60;76.50;;;;;;5092617;28;20985;-70
2023/01/13 09:22:01;;;;;;;3.13;1.00;;;13.70;77.00;;;;;;5092304;28;20481;-69
2023/01/13 09:24:29;;;;;;;1.20;0.90;;;13.60;77.20;;;;;;5093015;28;20533;-69
2023/01/13 09:26:56;;;;;;;2.30;1.00;;;13.60;77.50;;;;;;5091403;28;20454;-71
2023/01/13 09:29:23;;;;;;;1.53;0.97;;;13.60;78.00;;;;;;5093209;28;20537;-71
2023/01/13 09:31:51;;;;;;;1.23;0.90;;;13.60;78.00;;;;;;5092398;28;20827;-72
2023/01/13 09:37:06;;;;;;;3.87;1.07;;;13.70;77.90;;;;;;5089178;28;20438;-71
2023/01/13 09:39:33;;;;;;;3.50;1.00;;;13.70;78.20;;;;;;5072842;28;20447;-72
2023/01/13 09:44:56;;;;;;;2.07;1.30;;;13.70;78.20;;;;;;5071646;28;20419;-71
2023/01/13 09:47:29;;;;;;;2.10;1.10;;;13.70;77.80;;;;;;5072300;28;20432;-71
2023/01/13 09:50:03;;;;;;;2.97;1.40;;;13.70;77.60;;;;;;5079261;28;20477;-71
2023/01/13 09:52:30;;;;;;;3.50;1.23;;;13.70;77.40;;;;;;5092024;28;20492;-71
2023/01/13 09:55:04;;;;;;;2.20;1.13;;;13.70;77.70;;;;;;5091862;28;20450;-71
2023/01/13 09:57:36;;;;;;;3.10;1.37;;;13.90;77.10;;;;;;5099989;28;20433;-71
2023/01/13 10:00:11;;;;;;;2.37;1.30;;;13.90;77.00;;;;;;5112033;28;21209;-71
2023/01/13 10:02:57;;;;;;;3.93;1.50;;;14.00;76.80;;;;;;5098790;28;20446;-71
2023/01/13 10:05:34;;;;;;;1.80;1.00;;;14.10;76.20;;;;;;5092397;28;20531;-71
2023/01/13 10:08:07;;;;;;;2.97;1.20;;;14.10;75.80;;;;;;5091832;28;20434;-71
2023/01/13 10:10:41;;;;;;;3.87;1.30;;;14.30;76.30;;;;;;5092292;28;20509;-71
2023/01/13 10:13:15;;;;;;;4.77;1.40;;;14.30;75.40;;;;;;5092183;28;20743;-71
2023/01/13 10:15:55;;;;;;;3.77;1.10;;;14.30;75.40;;;;;;5071321;28;20419;-72
2023/01/13 10:18:33;;;;;;;2.57;0.90;;;14.30;75.00;;;;;;5072255;28;20521;-72
2023/01/13 10:21:25;;;;;;;3.07;1.33;;;14.30;75.40;;;;;;5071539;28;20507;-71
2023/01/13 10:24:00;;;;;;;5.07;1.90;;;14.10;75.10;;;;;;5071347;28;20455;-71
2023/01/13 10:26:42;;;;;;;2.57;1.47;;;14.00;74.70;;;;;;5083335;28;20487;-71
2023/01/13 10:29:21;;;;;;;4.23;1.47;;;14.00;74.90;;;;;;5092395;28;20465;-72
2023/01/13 10:31:48;;;;;;;2.30;1.17;;;13.90;74.50;;;;;;5096413;28;20477;-72
2023/01/13 10:34:16;;;;;;;4.47;1.60;;;13.90;75.00;;;;;;5115975;28;20457;-72
2023/01/13 10:36:58;;;;;;;4.70;1.30;;;14.00;74.40;;;;;;5115595;28;20438;-71
2023/01/13 10:39:25;;;;;;;3.43;1.80;;;13.90;74.40;;;;;;5096325;28;20419;-71
2023/01/13 10:42:01;;;;;;;3.60;1.63;;;13.80;74.40;;;;;;5095100;28;20459;-71
2023/01/13 10:44:28;;;;;;;1.57;1.07;;;13.80;74.50;;;;;;5095420;28;20457;-71
2023/01/13 10:46:57;;;;;;;2.50;1.30;;;13.80;74.60;;;;;;5095529;28;20820;-72
2023/01/13 10:49:35;;;;;;;3.50;1.60;;;13.90;74.80;;;;;;5098302;28;20448;-71
2023/01/13 10:52:03;;;;;;;3.30;1.40;;;14.00;73.90;;;;;;5085972;28;20470;-71
2023/01/13 10:54:30;;;;;;;3.00;1.20;;;13.90;74.10;;;;;;5076853;28;20434;-71
2023/01/13 10:57:15;;;;;;;5.37;1.70;;;14.00;74.10;;;;;;5080007;28;20447;-71
2023/01/13 10:59:42;;;;;;;5.47;1.67;;;13.90;73.40;;;;;;5115412;28;20449;-71
2023/01/13 11:02:24;;;;;;;3.83;1.90;;;13.90;73.80;;;;;;5105557;28;20452;-71
2023/01/13 11:05:15;;;;;;;4.87;1.53;;;14.00;73.50;;;;;;5100790;28;20437;-72
2023/01/13 11:07:49;;;;;;;2.80;1.50;;;14.00;73.50;;;;;;5102740;28;20430;-71
2023/01/13 11:10:22;;;;;;;3.70;1.47;;;14.00;73.30;;;;;;5093211;28;20853;-71
2023/01/13 11:12:58;;;;;;;3.13;1.50;;;14.10;73.30;;;;;;5084382;28;20495;-71
2023/01/13 11:15:38;;;;;;;8.10;1.70;;;14.10;72.40;;;;;;5084078;28;20514;-71
2023/01/13 11:18:13;;;;;;;2.80;1.60;;;14.20;72.70;;;;;;5074522;28;20481;-71
2023/01/13 11:20:44;;;;;;;3.27;1.53;;;14.30;72.60;;;;;;5085224;28;20473;-71
2023/01/13 11:23:17;;;;;;;4.93;1.87;;;14.30;71.90;;;;;;5094809;28;20438;-71
2023/01/13 11:25:49;;;;;;;4.20;1.60;;;14.30;72.60;;;;;;5094464;28;20910;-71
2023/01/13 11:28:26;;;;;;;4.70;2.00;;;14.30;71.90;;;;;;5095531;28;20438;-71
2023/01/13 11:30:58;;;;;;;3.93;1.70;;;14.30;71.70;;;;;;5094418;28;20431;-71
2023/01/13 11:33:35;;;;;;;3.47;1.43;;;14.30;71.40;;;;;;5076755;28;20513;-71
2023/01/13 11:36:10;;;;;;;3.63;1.87;;;14.30;71.80;;;;;;5074424;28;20863;-71
2023/01/13 11:38:50;;;;;;;6.50;1.97;;;14.20;71.80;;;;;;5075318;28;20458;-71
2023/01/13 11:41:42;;;;;;;4.83;1.60;;;14.10;70.30;;;;;;5074692;28;20431;-71
2023/01/13 11:44:19;;;;;;;3.47;1.70;;;14.00;70.50;;;;;;5080641;28;20522;-71
2023/01/13 11:46:48;;;;;;;5.23;1.67;;;13.90;70.40;;;;;;5094479;28;20754;-71
2023/01/13 11:49:22;;;;;;;5.00;2.00;;;13.70;69.50;;;;;;5095055;28;20450;-71
2023/01/13 11:51:56;;;;;;;4.00;1.60;;;13.70;70.50;;;;;;5093867;28;20473;-72
2023/01/13 11:54:38;;;;;;;2.90;1.60;;;13.70;70.70;;;;;;5094926;28;20422;-71
2023/01/13 11:57:21;;;;;;;5.37;1.70;;;13.80;71.40;;;;;;5085633;28;20445;-70
2023/01/13 12:00:14;;;;;;;4.73;1.60;;;13.70;72.00;;;;;;5114606;28;20499;-71
2023/01/13 12:03:14;;;;;;;4.07;1.50;;;13.60;72.70;;;;;;5115525;28;20525;-71
2023/01/13 12:05:43;;;;;;;3.43;1.60;;;13.10;72.50;;;;;;5115092;28;20436;-71
2023/01/13 12:08:18;;;;;;;2.87;1.50;;;12.80;73.40;;;;;;5104418;28;20533;-71
2023/01/13 12:11:01;;;;;;;2.80;1.80;;;12.80;74.20;;;;;;5093798;28;20513;-72
2023/01/13 12:13:40;;;;;;;2.77;1.30;;;12.70;75.30;;;;;;5094088;28;21083;-72
2023/01/13 12:16:22;;;;;;;3.27;1.53;;;12.80;75.90;;;;;;5094230;28;20433;-72
2023/01/13 12:19:16;;;;;;;4.37;1.50;;;13.10;75.30;;;;;;5094036;28;20435;-72
2023/01/13 12:21:56;;;;;;;2.97;1.30;;;13.60;74.70;;;;;;5073857;28;20451;-72
2023/01/13 12:24:29;;;;;;;4.60;1.40;;;14.00;72.50;;;;;;5074018;28;20431;-71
2023/01/13 12:27:01;;;;;;;2.57;1.43;;;14.00;71.50;;;;;;5073201;28;20428;-71
2023/01/13 12:29:31;;;;;;;3.73;1.50;;;13.90;70.30;;;;;;5073787;28;20443;-71
2023/01/13 12:32:01;;;;;;;5.93;2.20;;;13.80;70.20;;;;;;5080745;28;20482;-71
2023/01/13 12:34:47;;;;;;;4.40;1.80;;;14.10;69.10;;;;;;5093839;28;20489;-71
2023/01/13 12:37:21;;;;;;;3.27;1.60;;;14.80;65.80;;;;;;5093791;28;20443;-71
2023/01/13 12:40:12;;;;;;;4.70;1.97;;;15.10;66.00;;;;;;5093561;28;20517;-71
2023/01/13 12:45:32;;;;;;;5.70;2.00;;;14.90;66.20;;;;;;5093681;28;20433;-71
2023/01/13 12:48:00;;;;;;;3.20;1.77;;;14.70;66.10;;;;;;5093205;28;20446;-71
2023/01/13 12:50:40;;;;;;;4.47;1.60;;;14.50;66.20;;;;;;5091569;28;20962;-71
2023/01/13 12:53:35;;;;;;;6.90;1.90;;;14.20;66.70;;;;;;5076568;28;20552;-71
2023/01/13 12:56:32;;;;;;;4.80;1.80;;;15.00;65.60;;;;;;5069528;28;20467;-72
2023/01/13 12:59:47;;;;;;;3.87;1.57;;;16.50;60.80;;;;;;5093152;28;20450;-71
2023/01/13 13:02:29;;;;;;;4.23;1.27;;;16.20;59.20;;;;;;5093774;28;20786;-71
2023/01/13 13:04:58;;;;;;;3.97;1.50;;;15.50;61.30;;;;;;5078103;28;20453;-72
2023/01/13 13:07:40;;;;;;;3.27;1.40;;;14.90;61.00;;;;;;5072963;28;20463;-71
2023/01/13 13:10:16;;;;;;;3.20;1.43;;;14.50;61.40;;;;;;5072180;28;20447;-71
2023/01/13 13:15:42;;;;;;;4.80;1.63;;;14.00;62.60;;;;;;5077816;28;20442;-71
2023/01/13 13:18:27;;;;;;;3.53;1.20;;;13.80;63.00;;;;;;5092359;28;20853;-71
2023/01/13 13:21:07;;;;;;;3.17;1.13;;;13.90;62.70;;;;;;5087134;28;20572;-71
2023/01/13 13:24:02;;;;;;;5.20;1.50;;;14.20;61.80;;;;;;5072924;28;20462;-71
2023/01/13 13:26:38;;;;;;;3.97;1.37;;;14.20;61.70;;;;;;5015174;28;20474;-71
2023/01/13 13:29:33;;;;;;;4.00;1.60;;;13.90;61.80;;;;;;5086530;28;20446;-72
2023/01/13 13:32:27;;;;;;;3.57;1.67;;;13.80;62.80;;;;;;5092009;28;20521;-71
2023/01/13 13:35:14;;;;;;;3.77;1.93;;;13.80;63.20;;;;;;5091964;28;20946;-71
2023/01/13 13:46:46;;;;;;;3.33;1.70;;;16.70;57.50;;;;;;5072291;28;20414;-72
2023/01/13 13:49:14;;;;;;;4.27;1.53;;;16.30;57.70;;;;;;5072366;28;20510;-72
2023/01/13 13:51:45;;;;;;;5.07;1.83;;;16.00;58.40;;;;;;5078357;28;20518;-71
2023/01/13 13:54:17;;;;;;;7.40;1.80;;;15.90;58.00;;;;;;5051089;28;20440;-72
2023/01/13 13:56:46;;;;;;;4.00;1.57;;;15.60;58.60;;;;;;5053201;28;20818;-71
2023/01/13 13:59:17;;;;;;;4.50;1.67;;;15.10;58.40;;;;;;5072400;28;20439;-71
2023/01/13 14:01:50;;;;;;;6.37;1.93;;;14.50;59.80;;;;;;5072079;28;20591;-71
2023/01/13 14:04:19;;;;;;;6.03;1.93;;;14.20;60.50;;;;;;5062020;28;20516;-71
2023/01/13 14:06:51;;;;;;;6.03;1.90;;;13.80;62.60;;;;;;5051947;28;20536;-71
2023/01/13 14:09:19;;;;;;;4.27;1.90;;;13.70;64.60;;;;;;5052146;28;20940;-71